sensor_id;sensor_type;location;lat;lon;timestamp;pressure;altitude;pressure_sealevel;temperature;humidity
113;BME280;45999;48.808;9.182;2023-10-31T00:00:32;96520.63;;;11.48;100.00
113;BME280;45999;48.808;9.182;2023-10-31T00:02:58;96524.91;;;11.49;100.00
113;BME280;45999;48.808;9.182;2023-10-31T00:05:24;96521.19;;;11.45;100.00
113;BME280;45999;48.808;9.182;2023-10-31T00:07:51;96523.78;;;11.40;100.00
113;BME280;45999;48.808;9.182;2023-10-31T00:10:17;96534.50;;;11.45;100.00
113;BME280;45999;48.808;9.182;2023-10-31T00:12:44;96536.59;;;11.48;100.00
113;BME280;45999;48.808;9.182;2023-10-31T00:15:10;96558.72;;;11.49;100.00
113;BME280;45999;48.808;9.182;2023-10-31T00:17:37;96557.38;;;11.51;100.00
113;BME280;45999;48.808;9.182;2023-10-31T00:20:04;96562.97;;;11.50;100.00
113;BME280;45999;48.808;9.182;2023-10-31T00:22:30;96562.69;;;11.41;100.00
113;BME280;45999;48.808;9.182;2023-10-31T00:24:57;96557.88;;;11.43;100.00
113;BME280;45999;48.808;9.182;2023-10-31T00:27:23;96560.78;;;11.42;100.00
113;BME280;45999;48.808;9.182;2023-10-31T00:29:49;96555.50;;;11.47;100.00
113;BME280;45999;48.808;9.182;2023-10-31T00:32:16;96563.19;;;11.43;100.00
113;BME280;45999;48.808;9.182;2023-10-31T00:34:42;96572.78;;;11.44;100.00
113;BME280;45999;48.808;9.182;2023-10-31T00:37:09;96570.13;;;11.44;100.00
113;BME280;45999;48.808;9.182;2023-10-31T00:39:35;96573.59;;;11.45;100.00
113;BME280;45999;48.808;9.182;2023-10-31T00:42:01;96581.31;;;11.46;100.00
113;BME280;45999;48.808;9.182;2023-10-31T00:44:28;96576.00;;;11.46;100.00
113;BME280;45999;48.808;9.182;2023-10-31T00:46:54;96579.72;;;11.45;100.00
113;BME280;45999;48.808;9.182;2023-10-31T00:49:21;96575.19;;;11.46;100.00
113;BME280;45999;48.808;9.182;2023-10-31T00:51:47;96579.44;;;11.47;100.00
113;BME280;45999;48.808;9.182;2023-10-31T00:54:15;96583.97;;;11.41;100.00
113;BME280;45999;48.808;9.182;2023-10-31T00:56:44;96585.81;;;11.46;100.00
113;BME280;45999;48.808;9.182;2023-10-31T00:59:11;96588.50;;;11.46;100.00
113;BME280;45999;48.808;9.182;2023-10-31T01:01:38;96598.28;;;11.40;100.00
113;BME280;45999;48.808;9.182;2023-10-31T01:04:04;96597.25;;;11.36;100.00
113;BME280;45999;48.808;9.182;2023-10-31T01:06:30;96593.25;;;11.34;100.00
113;BME280;45999;48.808;9.182;2023-10-31T01:08:57;96598.03;;;11.37;100.00
113;BME280;45999;48.808;9.182;2023-10-31T01:11:23;96594.59;;;11.36;100.00
113;BME280;45999;48.808;9.182;2023-10-31T01:13:50;96598.81;;;11.32;100.00
113;BME280;45999;48.808;9.182;2023-10-31T01:16:16;96593.19;;;11.28;100.00
113;BME280;45999;48.808;9.182;2023-10-31T01:18:43;96588.59;;;11.14;100.00
113;BME280;45999;48.808;9.182;2023-10-31T01:21:10;96586.19;;;11.13;100.00
113;BME280;45999;48.808;9.182;2023-10-31T01:23:36;96602.41;;;11.11;100.00
113;BME280;45999;48.808;9.182;2023-10-31T01:26:03;96606.66;;;11.12;100.00
113;BME280;45999;48.808;9.182;2023-10-31T01:28:29;96613.00;;;11.01;100.00
113;BME280;45999;48.808;9.182;2023-10-31T01:30:55;96612.41;;;10.94;100.00
113;BME280;45999;48.808;9.182;2023-10-31T01:33:22;96628.06;;;10.90;100.00
113;BME280;45999;48.808;9.182;2023-10-31T01:35:48;96630.91;;;10.79;100.00
113;BME280;45999;48.808;9.182;2023-10-31T01:38:15;96628.97;;;10.69;100.00
113;BME280;45999;48.808;9.182;2023-10-31T01:40:41;96642.41;;;10.58;100.00
113;BME280;45999;48.808;9.182;2023-10-31T01:43:08;96649.34;;;10.59;100.00
113;BME280;45999;48.808;9.182;2023-10-31T01:45:34;96648.28;;;10.60;100.00
113;BME280;45999;48.808;9.182;2023-10-31T01:48:01;96642.41;;;10.58;100.00
113;BME280;45999;48.808;9.182;2023-10-31T01:50:27;96641.63;;;10.57;100.00
113;BME280;45999;48.808;9.182;2023-10-31T01:52:54;96641.91;;;10.61;100.00
113;BME280;45999;48.808;9.182;2023-10-31T01:55:20;96652.31;;;10.62;100.00
113;BME280;45999;48.808;9.182;2023-10-31T01:57:48;96657.00;;;10.55;100.00
113;BME280;45999;48.808;9.182;2023-10-31T02:00:15;96654.31;;;10.50;100.00
113;BME280;45999;48.808;9.182;2023-10-31T02:02:42;96662.88;;;10.57;100.00
113;BME280;45999;48.808;9.182;2023-10-31T02:05:09;96663.09;;;10.51;100.00
113;BME280;45999;48.808;9.182;2023-10-31T02:07:36;96665.50;;;10.52;100.00
113;BME280;45999;48.808;9.182;2023-10-31T02:10:02;96669.50;;;10.55;100.00
113;BME280;45999;48.808;9.182;2023-10-31T02:12:36;96671.31;;;10.49;100.00
113;BME280;45999;48.808;9.182;2023-10-31T02:15:03;96677.97;;;10.52;100.00
113;BME280;45999;48.808;9.182;2023-10-31T02:17:30;96684.31;;;10.46;100.00
113;BME280;45999;48.808;9.182;2023-10-31T02:19:56;96682.38;;;10.41;100.00
113;BME280;45999;48.808;9.182;2023-10-31T02:22:23;96676.53;;;10.39;100.00
113;BME280;45999;48.808;9.182;2023-10-31T02:24:49;96676.16;;;10.31;100.00
113;BME280;45999;48.808;9.182;2023-10-31T02:27:16;96694.59;;;10.42;100.00
113;BME280;45999;48.808;9.182;2023-10-31T02:29:42;96685.56;;;10.38;100.00
113;BME280;45999;48.808;9.182;2023-10-31T02:32:08;96693.19;;;10.35;100.00
113;BME280;45999;48.808;9.182;2023-10-31T02:34:35;96696.19;;;10.38;100.00
113;BME280;45999;48.808;9.182;2023-10-31T02:37:01;96703.00;;;10.29;100.00
113;BME280;45999;48.808;9.182;2023-10-31T02:39:28;96702.19;;;10.29;100.00
113;BME280;45999;48.808;9.182;2023-10-31T02:41:54;96700.06;;;10.31;100.00
113;BME280;45999;48.808;9.182;2023-10-31T02:44:20;96696.88;;;10.29;100.00
113;BME280;45999;48.808;9.182;2023-10-31T02:46:47;96701.06;;;10.25;100.00
113;BME280;45999;48.808;9.182;2023-10-31T02:49:13;96694.16;;;10.24;100.00
113;BME280;45999;48.808;9.182;2023-10-31T02:51:40;96692.50;;;10.18;100.00
113;BME280;45999;48.808;9.182;2023-10-31T02:54:06;96695.53;;;10.26;100.00
113;BME280;45999;48.808;9.182;2023-10-31T02:56:32;96704.53;;;10.25;100.00
113;BME280;45999;48.808;9.182;2023-10-31T02:58:59;96713.28;;;10.26;100.00
113;BME280;45999;48.808;9.182;2023-10-31T03:01:28;96714.06;;;10.21;100.00
113;BME280;45999;48.808;9.182;2023-10-31T03:03:54;96716.47;;;10.23;100.00
113;BME280;45999;48.808;9.182;2023-10-31T03:06:21;96721.22;;;10.21;100.00
113;BME280;45999;48.808;9.182;2023-10-31T03:08:47;96726.94;;;10.13;100.00
113;BME280;45999;48.808;9.182;2023-10-31T03:11:23;96728.88;;;10.17;100.00
113;BME280;45999;48.808;9.182;2023-10-31T03:13:50;96726.03;;;10.24;100.00
113;BME280;45999;48.808;9.182;2023-10-31T03:16:17;96722.31;;;10.25;100.00
113;BME280;45999;48.808;9.182;2023-10-31T03:18:45;96739.66;;;10.32;100.00
113;BME280;45999;48.808;9.182;2023-10-31T03:21:11;96737.25;;;10.31;100.00
113;BME280;45999;48.808;9.182;2023-10-31T03:23:38;96736.22;;;10.32;100.00
113;BME280;45999;48.808;9.182;2023-10-31T03:26:04;96746.28;;;10.30;100.00
113;BME280;45999;48.808;9.182;2023-10-31T03:28:31;96743.13;;;10.33;100.00
113;BME280;45999;48.808;9.182;2023-10-31T03:30:57;96740.72;;;10.31;100.00
113;BME280;45999;48.808;9.182;2023-10-31T03:33:24;96748.69;;;10.31;100.00
113;BME280;45999;48.808;9.182;2023-10-31T03:35:50;96748.19;;;10.34;100.00
113;BME280;45999;48.808;9.182;2023-10-31T03:38:17;96738.06;;;10.31;100.00
113;BME280;45999;48.808;9.182;2023-10-31T03:40:43;96736.75;;;10.34;100.00
113;BME280;45999;48.808;9.182;2023-10-31T03:43:09;96742.56;;;10.31;100.00
113;BME280;45999;48.808;9.182;2023-10-31T03:45:36;96746.78;;;10.27;100.00
113;BME280;45999;48.808;9.182;2023-10-31T03:48:03;96742.78;;;10.24;100.00
113;BME280;45999;48.808;9.182;2023-10-31T03:50:29;96741.66;;;10.20;100.00
113;BME280;45999;48.808;9.182;2023-10-31T03:52:56;96748.88;;;10.25;100.00
113;BME280;45999;48.808;9.182;2023-10-31T03:55:22;96742.78;;;10.24;100.00
113;BME280;45999;48.808;9.182;2023-10-31T03:57:49;96737.78;;;10.28;100.00
113;BME280;45999;48.808;9.182;2023-10-31T04:00:15;96744.38;;;10.25;100.00
113;BME280;45999;48.808;9.182;2023-10-31T04:02:42;96744.31;;;10.20;100.00
113;BME280;45999;48.808;9.182;2023-10-31T04:05:08;96757.59;;;10.20;100.00
113;BME280;45999;48.808;9.182;2023-10-31T04:07:35;96751.19;;;10.16;100.00
113;BME280;45999;48.808;9.182;2023-10-31T04:10:01;96752.16;;;10.10;100.00
113;BME280;45999;48.808;9.182;2023-10-31T04:12:28;96761.47;;;10.13;100.00
113;BME280;45999;48.808;9.182;2023-10-31T04:14:54;96766.72;;;10.08;100.00
113;BME280;45999;48.808;9.182;2023-10-31T04:17:21;96763.97;;;10.03;100.00
113;BME280;45999;48.808;9.182;2023-10-31T04:19:48;96775.97;;;10.05;100.00
113;BME280;45999;48.808;9.182;2023-10-31T04:22:14;96760.38;;;10.09;100.00
113;BME280;45999;48.808;9.182;2023-10-31T04:24:41;96768.06;;;10.10;100.00
113;BME280;45999;48.808;9.182;2023-10-31T04:27:07;96763.03;;;10.09;100.00
113;BME280;45999;48.808;9.182;2023-10-31T04:29:34;96765.38;;;10.05;100.00
113;BME280;45999;48.808;9.182;2023-10-31T04:32:00;96764.09;;;9.91;100.00
113;BME280;45999;48.808;9.182;2023-10-31T04:34:27;96768.91;;;9.94;100.00
113;BME280;45999;48.808;9.182;2023-10-31T04:36:53;96774.47;;;9.93;100.00
113;BME280;45999;48.808;9.182;2023-10-31T04:39:20;96781.44;;;9.99;100.00
113;BME280;45999;48.808;9.182;2023-10-31T04:41:46;96788.28;;;9.95;100.00
113;BME280;45999;48.808;9.182;2023-10-31T04:44:13;96780.31;;;9.95;100.00
113;BME280;45999;48.808;9.182;2023-10-31T04:46:39;96772.63;;;9.93;100.00
113;BME280;45999;48.808;9.182;2023-10-31T04:49:05;96784.03;;;9.94;100.00
113;BME280;45999;48.808;9.182;2023-10-31T04:51:35;96787.97;;;10.08;100.00
113;BME280;45999;48.808;9.182;2023-10-31T04:54:02;96789.25;;;10.05;100.00
113;BME280;45999;48.808;9.182;2023-10-31T04:56:29;96785.72;;;10.00;100.00
113;BME280;45999;48.808;9.182;2023-10-31T04:58:56;96785.97;;;9.98;100.00
113;BME280;45999;48.808;9.182;2023-10-31T05:01:22;96781.13;;;9.95;100.00
113;BME280;45999;48.808;9.182;2023-10-31T05:03:49;96797.06;;;9.95;100.00
113;BME280;45999;48.808;9.182;2023-10-31T05:06:20;96799.97;;;9.94;100.00
113;BME280;45999;48.808;9.182;2023-10-31T05:08:46;96798.53;;;9.86;100.00
113;BME280;45999;48.808;9.182;2023-10-31T05:11:13;96808.25;;;9.81;100.00
113;BME280;45999;48.808;9.182;2023-10-31T05:13:40;96798.09;;;9.73;100.00
113;BME280;45999;48.808;9.182;2023-10-31T05:16:06;96814.09;;;9.61;100.00
113;BME280;45999;48.808;9.182;2023-10-31T05:18:35;96818.84;;;9.59;100.00
113;BME280;45999;48.808;9.182;2023-10-31T05:21:02;96811.84;;;9.53;100.00
113;BME280;45999;48.808;9.182;2023-10-31T05:23:29;96808.38;;;9.53;100.00
113;BME280;45999;48.808;9.182;2023-10-31T05:25:55;96808.88;;;9.50;100.00
113;BME280;45999;48.808;9.182;2023-10-31T05:28:21;96823.25;;;9.54;100.00
113;BME280;45999;48.808;9.182;2023-10-31T05:30:48;96810.72;;;9.49;100.00
113;BME280;45999;48.808;9.182;2023-10-31T05:33:18;96818.22;;;9.52;100.00
113;BME280;45999;48.808;9.182;2023-10-31T05:35:45;96810.50;;;9.51;100.00
113;BME280;45999;48.808;9.182;2023-10-31T05:38:11;96814.66;;;9.47;100.00
113;BME280;45999;48.808;9.182;2023-10-31T05:40:38;96813.06;;;9.46;100.00
113;BME280;45999;48.808;9.182;2023-10-31T05:43:04;96828.81;;;9.52;100.00
113;BME280;45999;48.808;9.182;2023-10-31T05:45:30;96820.06;;;9.52;100.00
113;BME280;45999;48.808;9.182;2023-10-31T05:47:58;96827.34;;;9.45;100.00
113;BME280;45999;48.808;9.182;2023-10-31T05:50:24;96822.22;;;9.38;100.00
113;BME280;45999;48.808;9.182;2023-10-31T05:52:50;96817.47;;;9.40;100.00
113;BME280;45999;48.808;9.182;2023-10-31T05:55:17;96824.31;;;9.36;100.00
113;BME280;45999;48.808;9.182;2023-10-31T05:57:43;96842.06;;;9.36;100.00
113;BME280;45999;48.808;9.182;2023-10-31T06:00:10;96848.09;;;9.31;100.00
113;BME280;45999;48.808;9.182;2023-10-31T06:02:36;96854.69;;;9.29;100.00
113;BME280;45999;48.808;9.182;2023-10-31T06:05:03;96855.50;;;9.29;100.00
113;BME280;45999;48.808;9.182;2023-10-31T06:07:29;96855.00;;;9.32;100.00
113;BME280;45999;48.808;9.182;2023-10-31T06:09:56;96848.41;;;9.35;100.00
113;BME280;45999;48.808;9.182;2023-10-31T06:12:22;96853.72;;;9.35;100.00
113;BME280;45999;48.808;9.182;2023-10-31T06:14:49;96850.34;;;9.39;100.00
113;BME280;45999;48.808;9.182;2023-10-31T06:17:15;96854.94;;;9.44;100.00
113;BME280;45999;48.808;9.182;2023-10-31T06:19:42;96852.78;;;9.41;100.00
113;BME280;45999;48.808;9.182;2023-10-31T06:22:11;96861.53;;;9.41;100.00
113;BME280;45999;48.808;9.182;2023-10-31T06:24:38;96870.59;;;9.45;100.00
113;BME280;45999;48.808;9.182;2023-10-31T06:27:05;96880.41;;;9.45;100.00
113;BME280;45999;48.808;9.182;2023-10-31T06:29:32;96880.41;;;9.45;100.00
113;BME280;45999;48.808;9.182;2023-10-31T06:31:58;96873.75;;;9.59;100.00
113;BME280;45999;48.808;9.182;2023-10-31T06:34:24;96877.44;;;9.58;100.00
113;BME280;45999;48.808;9.182;2023-10-31T06:36:51;96886.22;;;9.75;100.00
113;BME280;45999;48.808;9.182;2023-10-31T06:39:17;96888.31;;;9.73;100.00
113;BME280;45999;48.808;9.182;2023-10-31T06:41:44;96899.25;;;9.76;100.00
113;BME280;45999;48.808;9.182;2023-10-31T06:44:10;96916.53;;;9.79;100.00
113;BME280;45999;48.808;9.182;2023-10-31T06:46:36;96923.38;;;9.75;100.00
113;BME280;45999;48.808;9.182;2023-10-31T06:49:03;96925.78;;;9.76;100.00
113;BME280;45999;48.808;9.182;2023-10-31T06:51:29;96931.41;;;9.80;100.00
113;BME280;45999;48.808;9.182;2023-10-31T06:53:56;96927.16;;;9.79;100.00
113;BME280;45999;48.808;9.182;2023-10-31T06:56:22;96928.53;;;9.81;100.00
113;BME280;45999;48.808;9.182;2023-10-31T06:58:48;96939.22;;;9.86;100.00
113;BME280;45999;48.808;9.182;2023-10-31T07:01:15;96940.81;;;9.87;100.00
113;BME280;45999;48.808;9.182;2023-10-31T07:03:43;96944.22;;;9.83;100.00
113;BME280;45999;48.808;9.182;2023-10-31T07:06:10;96932.06;;;9.87;100.00
113;BME280;45999;48.808;9.182;2023-10-31T07:08:36;96929.66;;;9.85;100.00
113;BME280;45999;48.808;9.182;2023-10-31T07:11:02;96936.41;;;9.93;100.00
113;BME280;45999;48.808;9.182;2023-10-31T07:13:30;96941.94;;;9.91;100.00
113;BME280;45999;48.808;9.182;2023-10-31T07:15:56;96945.56;;;10.02;100.00
113;BME280;45999;48.808;9.182;2023-10-31T07:18:23;96944.06;;;10.06;100.00
113;BME280;45999;48.808;9.182;2023-10-31T07:20:49;96943.34;;;10.10;100.00
113;BME280;45999;48.808;9.182;2023-10-31T07:23:15;96947.34;;;10.13;100.00
113;BME280;45999;48.808;9.182;2023-10-31T07:25:42;96944.63;;;10.24;100.00
113;BME280;45999;48.808;9.182;2023-10-31T07:28:08;96954.44;;;10.24;100.00
113;BME280;45999;48.808;9.182;2023-10-31T07:30:35;96953.31;;;10.20;100.00
113;BME280;45999;48.808;9.182;2023-10-31T07:33:01;96952.50;;;10.36;100.00
113;BME280;45999;48.808;9.182;2023-10-31T07:35:28;96956.69;;;10.32;100.00
113;BME280;45999;48.808;9.182;2023-10-31T07:37:54;96961.09;;;10.43;100.00
113;BME280;45999;48.808;9.182;2023-10-31T07:40:21;96966.16;;;10.44;100.00
113;BME280;45999;48.808;9.182;2023-10-31T07:42:47;96961.22;;;10.53;100.00
113;BME280;45999;48.808;9.182;2023-10-31T07:45:13;96972.78;;;10.42;100.00
113;BME280;45999;48.808;9.182;2023-10-31T07:47:40;96976.31;;;10.47;100.00
113;BME280;45999;48.808;9.182;2023-10-31T07:50:07;96974.66;;;10.63;100.00
113;BME280;45999;48.808;9.182;2023-10-31T07:52:33;96985.16;;;10.53;100.00
113;BME280;45999;48.808;9.182;2023-10-31T07:54:59;96980.16;;;10.56;100.00
113;BME280;45999;48.808;9.182;2023-10-31T07:57:26;96989.50;;;10.59;100.00
113;BME280;45999;48.808;9.182;2023-10-31T07:59:52;96989.75;;;10.57;100.00
113;BME280;45999;48.808;9.182;2023-10-31T08:02:19;96989.81;;;10.62;100.00
113;BME280;45999;48.808;9.182;2023-10-31T08:04:45;96993.09;;;10.69;100.00
113;BME280;45999;48.808;9.182;2023-10-31T08:07:11;96979.63;;;10.76;100.00
113;BME280;45999;48.808;9.182;2023-10-31T08:09:38;96982.53;;;10.74;100.00
113;BME280;45999;48.808;9.182;2023-10-31T08:12:03;96986.06;;;10.80;100.00
113;BME280;45999;48.808;9.182;2023-10-31T08:14:30;96985.56;;;10.83;100.00
113;BME280;45999;48.808;9.182;2023-10-31T08:16:56;96992.00;;;10.87;100.00
113;BME280;45999;48.808;9.182;2023-10-31T08:19:22;96996.91;;;10.95;100.00
113;BME280;45999;48.808;9.182;2023-10-31T08:21:49;97008.97;;;11.02;100.00
113;BME280;45999;48.808;9.182;2023-10-31T08:24:15;97001.28;;;11.06;100.00
113;BME280;45999;48.808;9.182;2023-10-31T08:26:42;97006.59;;;11.06;100.00
113;BME280;45999;48.808;9.182;2023-10-31T08:29:08;97005.06;;;11.10;100.00
113;BME280;45999;48.808;9.182;2023-10-31T08:31:34;97016.31;;;11.17;100.00
113;BME280;45999;48.808;9.182;2023-10-31T08:34:01;97014.16;;;11.14;100.00
113;BME280;45999;48.808;9.182;2023-10-31T08:36:28;97019.59;;;11.24;100.00
113;BME280;45999;48.808;9.182;2023-10-31T08:38:55;97025.03;;;11.34;100.00
113;BME280;45999;48.808;9.182;2023-10-31T08:41:21;97024.03;;;11.40;100.00
113;BME280;45999;48.808;9.182;2023-10-31T08:43:48;97033.59;;;11.36;100.00
113;BME280;45999;48.808;9.182;2023-10-31T08:46:13;97035.50;;;11.41;100.00
113;BME280;45999;48.808;9.182;2023-10-31T08:48:39;97031.28;;;11.45;100.00
113;BME280;45999;48.808;9.182;2023-10-31T08:51:06;97032.69;;;11.52;100.00
113;BME280;45999;48.808;9.182;2023-10-31T08:53:32;97038.34;;;11.34;100.00
113;BME280;45999;48.808;9.182;2023-10-31T08:55:59;97033.72;;;11.46;100.00
113;BME280;45999;48.808;9.182;2023-10-31T08:58:25;97030.19;;;11.41;100.00
113;BME280;45999;48.808;9.182;2023-10-31T09:00:51;97029.94;;;11.42;100.00
113;BME280;45999;48.808;9.182;2023-10-31T09:03:18;97027.69;;;11.56;100.00
113;BME280;45999;48.808;9.182;2023-10-31T09:05:44;97020.25;;;11.58;100.00
113;BME280;45999;48.808;9.182;2023-10-31T09:08:11;97020.19;;;11.74;100.00
113;BME280;45999;48.808;9.182;2023-10-31T09:10:37;97030.59;;;11.76;100.00
113;BME280;45999;48.808;9.182;2023-10-31T09:13:04;97025.53;;;11.74;100.00
113;BME280;45999;48.808;9.182;2023-10-31T09:15:31;97038.94;;;11.84;100.00
113;BME280;45999;48.808;9.182;2023-10-31T09:17:57;97039.50;;;11.86;100.00
113;BME280;45999;48.808;9.182;2023-10-31T09:20:24;97040.69;;;11.74;100.00
113;BME280;45999;48.808;9.182;2023-10-31T09:22:50;97038.69;;;11.86;100.00
113;BME280;45999;48.808;9.182;2023-10-31T09:25:17;97043.81;;;11.92;100.00
113;BME280;45999;48.808;9.182;2023-10-31T09:27:44;97037.47;;;11.98;100.00
113;BME280;45999;48.808;9.182;2023-10-31T09:30:10;97038.13;;;12.10;100.00
113;BME280;45999;48.808;9.182;2023-10-31T09:32:36;97038.59;;;12.02;100.00
113;BME280;45999;48.808;9.182;2023-10-31T09:35:03;97031.31;;;11.93;100.00
113;BME280;45999;48.808;9.182;2023-10-31T09:37:30;97032.75;;;12.05;100.00
113;BME280;45999;48.808;9.182;2023-10-31T09:39:57;97033.97;;;11.93;100.00
113;BME280;45999;48.808;9.182;2023-10-31T09:42:23;97029.72;;;11.97;100.00
113;BME280;45999;48.808;9.182;2023-10-31T09:44:50;97035.16;;;11.80;100.00
113;BME280;45999;48.808;9.182;2023-10-31T09:47:16;97029.41;;;11.88;100.00
113;BME280;45999;48.808;9.182;2023-10-31T09:49:43;97044.16;;;12.01;100.00
113;BME280;45999;48.808;9.182;2023-10-31T09:52:10;97035.38;;;12.00;100.00
113;BME280;45999;48.808;9.182;2023-10-31T09:54:38;97031.41;;;12.03;100.00
113;BME280;45999;48.808;9.182;2023-10-31T09:57:05;97035.56;;;12.20;100.00
113;BME280;45999;48.808;9.182;2023-10-31T09:59:31;97033.94;;;12.19;100.00
113;BME280;45999;48.808;9.182;2023-10-31T10:01:58;97032.22;;;12.35;100.00
113;BME280;45999;48.808;9.182;2023-10-31T10:04:24;97026.63;;;12.36;100.00
113;BME280;45999;48.808;9.182;2023-10-31T10:06:58;97029.16;;;12.21;100.00
113;BME280;45999;48.808;9.182;2023-10-31T10:09:25;97030.56;;;12.29;100.00
113;BME280;45999;48.808;9.182;2023-10-31T10:11:52;97029.16;;;12.21;100.00
113;BME280;45999;48.808;9.182;2023-10-31T10:14:20;97032.34;;;12.18;100.00
113;BME280;45999;48.808;9.182;2023-10-31T10:16:46;97038.22;;;12.20;100.00
113;BME280;45999;48.808;9.182;2023-10-31T10:19:16;97033.94;;;12.19;100.00
113;BME280;45999;48.808;9.182;2023-10-31T10:21:48;97041.59;;;12.11;100.00
113;BME280;45999;48.808;9.182;2023-10-31T10:24:17;97033.91;;;12.14;100.00
113;BME280;45999;48.808;9.182;2023-10-31T10:26:44;97045.06;;;12.11;100.00
113;BME280;45999;48.808;9.182;2023-10-31T10:29:10;97040.97;;;12.30;100.00
113;BME280;45999;48.808;9.182;2023-10-31T10:31:37;97045.72;;;12.23;100.00
113;BME280;45999;48.808;9.182;2023-10-31T10:34:04;97044.13;;;12.22;100.00
113;BME280;45999;48.808;9.182;2023-10-31T10:36:32;97045.75;;;12.28;100.00
113;BME280;45999;48.808;9.182;2023-10-31T10:38:59;97063.59;;;12.28;100.00
113;BME280;45999;48.808;9.182;2023-10-31T10:41:27;97061.41;;;12.20;100.00
113;BME280;45999;48.808;9.182;2023-10-31T10:46:33;97064.56;;;12.17;100.00
113;BME280;45999;48.808;9.182;2023-10-31T10:49:04;97060.56;;;12.14;100.00
113;BME280;45999;48.808;9.182;2023-10-31T10:52:27;97061.00;;;12.06;100.00
113;BME280;45999;48.808;9.182;2023-10-31T10:55:04;97061.66;;;12.18;100.00
113;BME280;45999;48.808;9.182;2023-10-31T11:00:38;97065.44;;;12.22;100.00
113;BME280;45999;48.808;9.182;2023-10-31T11:03:06;97070.47;;;12.24;100.00
113;BME280;45999;48.808;9.182;2023-10-31T11:05:33;97065.75;;;12.31;100.00
113;BME280;45999;48.808;9.182;2023-10-31T11:08:01;97063.75;;;12.43;100.00
113;BME280;45999;48.808;9.182;2023-10-31T11:10:29;97064.41;;;12.28;100.00
113;BME280;45999;48.808;9.182;2023-10-31T11:12:55;97059.06;;;12.28;100.00
113;BME280;45999;48.808;9.182;2023-10-31T11:15:23;97074.09;;;12.39;100.00
113;BME280;45999;48.808;9.182;2023-10-31T11:17:50;97068.78;;;12.44;100.00
113;BME280;45999;48.808;9.182;2023-10-31T11:20:19;97080.34;;;12.55;100.00
113;BME280;45999;48.808;9.182;2023-10-31T11:22:46;97069.66;;;12.50;100.00
113;BME280;45999;48.808;9.182;2023-10-31T11:25:20;97068.38;;;12.57;100.00
113;BME280;45999;48.808;9.182;2023-10-31T11:27:52;97065.75;;;12.62;100.00
113;BME280;45999;48.808;9.182;2023-10-31T11:32:48;97075.00;;;12.86;100.00
113;BME280;45999;48.808;9.182;2023-10-31T11:35:16;97072.28;;;12.76;100.00
113;BME280;45999;48.808;9.182;2023-10-31T11:37:43;97074.41;;;12.79;100.00
113;BME280;45999;48.808;9.182;2023-10-31T11:42:41;97084.16;;;12.64;100.00
113;BME280;45999;48.808;9.182;2023-10-31T11:45:08;97081.03;;;12.72;100.00
113;BME280;45999;48.808;9.182;2023-10-31T11:47:50;97079.69;;;12.74;100.00
113;BME280;45999;48.808;9.182;2023-10-31T11:50:17;97085.22;;;12.63;100.00
113;BME280;45999;48.808;9.182;2023-10-31T11:52:44;97078.13;;;12.47;100.00
113;BME280;45999;48.808;9.182;2023-10-31T11:55:11;97085.13;;;12.53;100.00
113;BME280;45999;48.808;9.182;2023-10-31T11:57:39;97087.88;;;12.63;100.00
113;BME280;45999;48.808;9.182;2023-10-31T12:00:06;97087.88;;;12.63;100.00
113;BME280;45999;48.808;9.182;2023-10-31T12:02:35;97086.06;;;12.68;100.00
113;BME280;45999;48.808;9.182;2023-10-31T12:05:12;97085.03;;;12.74;100.00
113;BME280;45999;48.808;9.182;2023-10-31T12:07:43;97090.28;;;12.64;100.00
113;BME280;45999;48.808;9.182;2023-10-31T12:10:10;97091.81;;;12.55;100.00
113;BME280;45999;48.808;9.182;2023-10-31T12:12:37;97090.97;;;12.50;100.00
113;BME280;45999;48.808;9.182;2023-10-31T12:15:07;97092.63;;;12.56;100.00
113;BME280;45999;48.808;9.182;2023-10-31T12:17:35;97096.91;;;12.57;100.00
113;BME280;45999;48.808;9.182;2023-10-31T12:20:08;97094.03;;;12.63;100.00
113;BME280;45999;48.808;9.182;2023-10-31T12:22:36;97100.75;;;12.71;100.00
113;BME280;45999;48.808;9.182;2023-10-31T12:25:07;97097.88;;;12.77;100.00
113;BME280;45999;48.808;9.182;2023-10-31T12:30:16;97099.00;;;12.86;100.00
113;BME280;45999;48.808;9.182;2023-10-31T12:32:43;97106.44;;;12.84;100.00
113;BME280;45999;48.808;9.182;2023-10-31T12:35:12;97100.13;;;12.95;100.00
113;BME280;45999;48.808;9.182;2023-10-31T12:37:46;97103.41;;;13.02;100.00
113;BME280;45999;48.808;9.182;2023-10-31T12:40:21;97109.06;;;13.11;100.00
113;BME280;45999;48.808;9.182;2023-10-31T12:42:48;97105.81;;;13.04;100.00
113;BME280;45999;48.808;9.182;2023-10-31T12:45:16;97109.59;;;13.08;100.00
113;BME280;45999;48.808;9.182;2023-10-31T12:47:43;97115.13;;;13.01;100.00
113;BME280;45999;48.808;9.182;2023-10-31T12:50:14;97112.38;;;12.91;100.00
113;BME280;45999;48.808;9.182;2023-10-31T12:53:00;97108.44;;;12.99;100.00
113;BME280;45999;48.808;9.182;2023-10-31T12:55:28;97106.19;;;12.86;100.00
113;BME280;45999;48.808;9.182;2023-10-31T12:57:56;97115.16;;;12.70;100.00
113;BME280;45999;48.808;9.182;2023-10-31T13:00:30;97121.22;;;12.65;100.00
113;BME280;45999;48.808;9.182;2023-10-31T13:03:08;97123.81;;;12.55;100.00
113;BME280;45999;48.808;9.182;2023-10-31T13:05:35;97117.88;;;12.48;100.00
113;BME280;45999;48.808;9.182;2023-10-31T13:08:01;97115.47;;;12.47;100.00
113;BME280;45999;48.808;9.182;2023-10-31T13:10:30;97110.94;;;12.47;100.00
113;BME280;45999;48.808;9.182;2023-10-31T13:12:58;97105.47;;;12.64;100.00
113;BME280;45999;48.808;9.182;2023-10-31T13:15:24;97125.53;;;12.71;100.00
113;BME280;45999;48.808;9.182;2023-10-31T13:17:51;97123.47;;;12.78;100.00
113;BME280;45999;48.808;9.182;2023-10-31T13:20:19;97130.88;;;12.98;100.00
113;BME280;45999;48.808;9.182;2023-10-31T13:22:46;97131.44;;;13.05;100.00
113;BME280;45999;48.808;9.182;2023-10-31T13:25:14;97131.78;;;13.13;100.00